createdAt,value
2019-03-09T00:22:12.747Z,4.88
2019-03-09T00:25:01.389Z,4.91
2019-03-09T00:27:50.240Z,4.99
2019-03-09T00:30:28.213Z,4.99
2019-03-09T00:32:58.647Z,5.03
2019-03-09T00:35:28.667Z,5.01
2019-03-09T00:38:01.372Z,5.01
2019-03-09T00:40:31.260Z,5.04
2019-03-09T00:43:02.576Z,5.04
2019-03-09T00:45:32.106Z,5.04
2019-03-09T00:48:01.950Z,5.04
2019-03-09T00:50:32.286Z,5.07
2019-03-09T00:53:02.239Z,5.07
2019-03-09T00:55:31.930Z,4.96
2019-03-09T00:58:05.142Z,5.04
2019-03-09T01:00:34.687Z,5.04
2019-03-09T01:03:04.474Z,5.05
2019-03-09T01:05:34.583Z,5.11
2019-03-09T01:08:04.574Z,5.04
2019-03-09T01:10:34.151Z,5.04
2019-03-09T01:13:05.186Z,5.04
2019-03-09T01:15:35.179Z,5.03
2019-03-09T01:18:04.999Z,5.06
2019-03-09T01:20:35.146Z,5.04
2019-03-09T01:23:05.124Z,5.01
2019-03-09T01:25:35.159Z,5.03
2019-03-09T01:28:05.082Z,5.08
2019-03-09T01:30:34.817Z,5.08
2019-03-09T01:33:04.722Z,5.11
2019-03-09T01:35:34.435Z,5.16
2019-03-09T01:38:04.747Z,5.22
2019-03-09T01:40:34.640Z,5.16
2019-03-09T01:43:04.594Z,5.16
2019-03-09T01:45:34.425Z,5.04
2019-03-09T01:48:04.083Z,5.04
2019-03-09T01:50:35.491Z,5.26
2019-03-09T01:53:05.558Z,5.28
2019-03-09T01:55:35.497Z,5.18
2019-03-09T01:58:05.466Z,5.18
2019-03-09T02:00:35.686Z,5.33
2019-03-09T02:03:05.704Z,5.33
2019-03-09T02:05:35.455Z,5.31
2019-03-09T02:08:05.626Z,5.24
2019-03-09T02:10:35.534Z,5.27
2019-03-09T02:13:05.170Z,5.26
2019-03-09T02:15:35.777Z,5.26
2019-03-09T02:18:05.616Z,5.26
2019-03-09T02:20:35.319Z,5.24
2019-03-09T02:23:05.420Z,5.27
2019-03-09T02:25:35.141Z,5.27
2019-03-09T02:28:05.046Z,5.28
2019-03-09T02:30:34.941Z,5.29
2019-03-09T02:33:05.269Z,5.30
2019-03-09T02:35:34.914Z,5.30
2019-03-09T02:38:23.597Z,5.27
2019-03-09T02:40:53.436Z,5.29
2019-03-09T02:43:23.195Z,5.33
2019-03-09T02:45:53.349Z,5.21
2019-03-09T02:48:23.214Z,5.19
2019-03-09T02:50:56.758Z,5.15
2019-03-09T02:53:27.672Z,5.13
2019-03-09T02:55:58.123Z,5.15
2019-03-09T02:58:27.913Z,5.08
2019-03-09T03:01:15.853Z,5.09
2019-03-09T03:03:45.492Z,5.14
2019-03-09T03:06:15.391Z,5.14
2019-03-09T03:08:45.294Z,5.16
2019-03-09T03:11:15.049Z,5.17
2019-03-09T03:13:46.652Z,5.27
2019-03-09T03:16:16.576Z,5.23
2019-03-09T03:18:46.491Z,5.23
2019-03-09T03:21:16.256Z,5.27
2019-03-09T03:23:46.256Z,5.22
2019-03-09T03:26:15.930Z,5.03
2019-03-09T03:28:45.666Z,5.14
2019-03-09T03:31:15.620Z,5.14
2019-03-09T03:33:45.376Z,5.21
2019-03-09T03:36:15.170Z,5.20
2019-03-09T03:38:45.424Z,5.21
2019-03-09T03:41:15.248Z,5.21
2019-03-09T03:43:45.260Z,5.28
2019-03-09T03:46:15.551Z,5.28
2019-03-09T03:48:45.476Z,5.21
2019-03-09T03:51:15.253Z,5.26
2019-03-09T03:53:45.201Z,5.17
2019-03-09T03:56:15.041Z,5.17
2019-03-09T03:58:44.902Z,5.26
2019-03-09T04:01:15.138Z,5.28
2019-03-09T04:03:44.987Z,5.28
2019-03-09T04:06:14.949Z,5.18
2019-03-09T04:08:45.454Z,5.18
2019-03-09T04:11:15.697Z,5.24
2019-03-09T04:13:45.702Z,5.24
2019-03-09T04:16:15.496Z,5.22
2019-03-09T04:18:45.379Z,5.23
2019-03-09T04:21:15.305Z,5.30
2019-03-09T04:23:45.244Z,5.28
2019-03-09T04:26:15.722Z,5.30
2019-03-09T04:28:45.267Z,5.28
2019-03-09T04:31:15.298Z,5.24
2019-03-09T04:33:46.086Z,5.24
2019-03-09T04:36:15.910Z,5.23
2019-03-09T04:38:45.728Z,5.28
2019-03-09T04:41:15.685Z,5.28
2019-03-09T04:43:45.435Z,5.33
2019-03-09T04:46:15.227Z,5.31
2019-03-09T04:48:45.246Z,5.33
2019-03-09T04:51:14.902Z,5.34
2019-03-09T04:53:44.606Z,5.39
2019-03-09T04:56:14.534Z,5.34
2019-03-09T04:58:44.294Z,5.37
2019-03-09T05:01:14.210Z,5.42
2019-03-09T05:03:43.905Z,5.42
2019-03-09T05:06:16.618Z,5.41
2019-03-09T05:09:20.449Z,5.41
2019-03-09T05:11:50.113Z,5.24
2019-03-09T05:14:23.105Z,5.24
2019-03-09T05:16:52.976Z,5.16
2019-03-09T05:19:22.704Z,5.16
2019-03-09T05:21:52.514Z,5.15
2019-03-09T05:24:22.152Z,5.31
2019-03-09T05:26:51.889Z,5.35
2019-03-09T05:29:21.798Z,5.36
2019-03-09T05:31:51.837Z,5.34
2019-03-09T05:34:21.633Z,5.34
2019-03-09T05:36:51.240Z,5.35
2019-03-09T05:39:21.082Z,5.36
2019-03-09T05:41:50.943Z,5.18
2019-03-09T05:44:20.738Z,5.18
2019-03-09T05:46:50.699Z,5.12
2019-03-09T05:49:20.412Z,5.16
2019-03-09T05:52:31.447Z,5.15
2019-03-09T05:55:13.289Z,5.11
2019-03-09T05:57:43.413Z,5.12
2019-03-09T06:00:15.282Z,5.07
2019-03-09T06:02:45.128Z,5.03
2019-03-09T06:05:50.068Z,5.04
2019-03-09T06:08:20.093Z,5.09
2019-03-09T06:10:50.156Z,5.13
2019-03-09T06:13:20.326Z,4.95
2019-03-09T06:15:50.610Z,4.98
2019-03-09T06:18:20.554Z,4.98
2019-03-09T06:20:50.520Z,4.96
2019-03-09T06:23:20.675Z,5.06
2019-03-09T06:25:50.678Z,4.97
2019-03-09T06:28:20.374Z,4.92
2019-03-09T06:30:50.672Z,4.88
2019-03-09T06:33:28.121Z,4.88
2019-03-09T06:36:26.780Z,4.95
2019-03-09T06:38:59.399Z,4.90
2019-03-09T06:41:39.439Z,4.92
2019-03-09T06:44:09.299Z,4.97
2019-03-09T06:46:38.983Z,5.00
2019-03-09T06:49:09.072Z,5.02
2019-03-09T06:51:38.847Z,5.05
2019-03-09T06:54:08.873Z,5.01
2019-03-09T06:56:38.761Z,5.06
2019-03-09T06:59:08.301Z,5.04
2019-03-09T07:01:38.259Z,5.00
2019-03-09T07:04:08.310Z,4.95
2019-03-09T07:06:38.092Z,4.96
2019-03-09T07:09:08.348Z,4.96
2019-03-09T07:11:38.539Z,4.94
2019-03-09T07:14:43.888Z,4.84
2019-03-09T07:17:13.719Z,4.83
2019-03-09T07:19:43.429Z,4.79
2019-03-09T07:22:13.054Z,4.85
2019-03-09T07:24:42.912Z,4.85
2019-03-09T07:27:12.622Z,4.79
2019-03-09T07:29:42.787Z,4.73
2019-03-09T07:32:13.208Z,4.73
2019-03-09T07:34:43.410Z,4.71
2019-03-09T07:37:13.171Z,4.70
2019-03-09T07:39:43.317Z,4.76
2019-03-09T07:42:13.364Z,4.84
2019-03-09T07:44:43.389Z,4.84
2019-03-09T07:47:13.521Z,4.80
2019-03-09T07:49:43.494Z,4.77
2019-03-09T07:52:34.047Z,4.72
2019-03-09T07:55:04.052Z,4.76
2019-03-09T07:57:33.831Z,4.79
2019-03-09T08:00:04.482Z,4.83
2019-03-09T08:02:34.487Z,4.68
2019-03-09T08:05:04.366Z,4.75
2019-03-09T08:07:34.419Z,4.75
2019-03-09T08:10:04.426Z,4.67
2019-03-09T08:12:34.214Z,4.70
2019-03-09T08:15:04.517Z,4.63
2019-03-09T08:17:34.824Z,4.62
2019-03-09T08:20:04.983Z,4.64
2019-03-09T08:22:35.005Z,4.62
2019-03-09T08:25:05.242Z,4.62
2019-03-09T08:27:35.323Z,4.66
2019-03-09T08:30:06.495Z,4.59
2019-03-09T08:32:36.730Z,4.59
2019-03-09T08:35:07.031Z,4.56
2019-03-09T08:37:36.750Z,4.58
2019-03-09T08:40:12.169Z,4.52
2019-03-09T08:42:42.099Z,4.53
2019-03-09T08:45:12.435Z,4.33
2019-03-09T08:47:51.517Z,4.33
2019-03-09T08:50:15.982Z,4.29
2019-03-09T08:52:46.208Z,4.22
2019-03-09T08:55:18.049Z,4.19
2019-03-09T08:57:48.453Z,4.16
2019-03-09T09:00:20.795Z,4.17
2019-03-09T09:02:50.792Z,4.24
2019-03-09T09:05:20.658Z,4.29
2019-03-09T09:07:50.788Z,4.19
2019-03-09T09:10:21.594Z,4.16
2019-03-09T09:12:51.290Z,4.21
2019-03-09T09:15:21.048Z,4.23
2019-03-09T09:17:52.061Z,4.19
2019-03-09T09:20:22.181Z,4.15
2019-03-09T09:22:51.918Z,4.27
2019-03-09T09:25:22.071Z,4.36
2019-03-09T09:27:52.445Z,4.43
2019-03-09T09:30:24.357Z,4.39
2019-03-09T09:32:54.002Z,4.30
2019-03-09T09:35:24.053Z,4.30
2019-03-09T09:37:54.272Z,4.29
2019-03-09T09:40:24.856Z,4.31
2019-03-09T09:42:54.774Z,4.27
2019-03-09T09:45:27.632Z,4.20
2019-03-09T09:47:57.691Z,4.22
2019-03-09T09:50:27.914Z,4.23
2019-03-09T09:52:57.409Z,4.02
2019-03-09T09:55:27.781Z,3.97
2019-03-09T09:57:57.735Z,3.90
2019-03-09T10:00:27.754Z,3.91
2019-03-09T10:02:57.958Z,3.80
2019-03-09T10:05:28.184Z,3.69
2019-03-09T10:07:58.173Z,3.73
2019-03-09T10:10:29.832Z,3.81
2019-03-09T10:13:00.227Z,3.88
2019-03-09T10:15:30.160Z,3.89
2019-03-09T10:18:00.236Z,3.97
2019-03-09T10:20:30.444Z,3.97
2019-03-09T10:23:04.512Z,4.15
2019-03-09T10:25:32.281Z,4.16
2019-03-09T10:28:02.087Z,4.24
2019-03-09T10:30:32.518Z,4.19
2019-03-09T10:33:03.610Z,4.19
2019-03-09T10:35:33.545Z,4.25
2019-03-09T10:38:03.327Z,4.38
2019-03-09T10:40:32.888Z,4.39
2019-03-09T10:43:03.237Z,4.40
2019-03-09T10:45:33.030Z,4.47
2019-03-09T10:48:02.943Z,4.36
2019-03-09T10:50:33.083Z,4.37
2019-03-09T10:53:02.786Z,4.44
2019-03-09T10:55:32.724Z,4.52
2019-03-09T10:58:03.027Z,4.55
2019-03-09T11:00:34.428Z,4.60
2019-03-09T11:03:04.908Z,4.60
2019-03-09T11:05:34.789Z,4.72
2019-03-09T11:08:04.938Z,4.80
2019-03-09T11:10:34.953Z,4.80
2019-03-09T11:13:06.898Z,4.86
2019-03-09T11:15:37.734Z,4.94
2019-03-09T11:18:10.120Z,5.20
2019-03-09T11:20:40.200Z,5.37
2019-03-09T11:23:10.753Z,5.37
2019-03-09T11:25:40.322Z,5.55
2019-03-09T11:28:16.362Z,5.53
2019-03-09T11:30:45.985Z,5.53
2019-03-09T11:33:15.843Z,5.52
2019-03-09T11:35:45.955Z,5.47
2019-03-09T11:38:15.820Z,5.52
2019-03-09T11:40:56.674Z,5.34
2019-03-09T11:43:17.992Z,5.34
2019-03-09T11:45:47.690Z,5.22
2019-03-09T11:48:17.708Z,5.22
2019-03-09T11:50:48.729Z,5.27
2019-03-09T11:53:18.897Z,5.19
2019-03-09T11:55:50.152Z,5.12
2019-03-09T11:58:20.715Z,5.09
2019-03-09T12:00:50.441Z,5.03
2019-03-09T12:03:20.710Z,4.94
2019-03-09T12:05:50.699Z,4.92
2019-03-09T12:08:22.042Z,5.03
2019-03-09T12:10:51.764Z,5.03
2019-03-09T12:13:21.784Z,5.00
2019-03-09T12:15:51.835Z,4.99
2019-03-09T12:18:21.859Z,4.95
2019-03-09T12:20:51.528Z,4.96
2019-03-09T12:23:23.455Z,5.01
2019-03-09T12:25:53.579Z,5.03
2019-03-09T12:28:23.297Z,4.95
2019-03-09T12:30:53.138Z,4.95
2019-03-09T12:33:22.808Z,5.02
2019-03-09T12:35:52.695Z,4.97
2019-03-09T12:38:22.886Z,5.04
2019-03-09T12:40:52.952Z,4.99
2019-03-09T12:43:22.728Z,5.03
2019-03-09T12:45:52.786Z,5.14
2019-03-09T12:48:22.576Z,5.15
2019-03-09T12:50:52.746Z,5.17
2019-03-09T12:53:22.797Z,5.24
2019-03-09T12:55:52.604Z,5.29
2019-03-09T12:58:22.795Z,5.35
2019-03-09T13:00:52.638Z,5.32
2019-03-09T13:03:23.113Z,5.39
2019-03-09T13:05:53.610Z,5.46
2019-03-09T13:08:23.652Z,5.53
2019-03-09T13:10:55.983Z,5.60
2019-03-09T13:13:26.297Z,5.66
2019-03-09T13:15:56.544Z,5.69
2019-03-09T13:18:27.688Z,5.52
2019-03-09T13:20:57.957Z,5.73
2019-03-09T13:23:27.927Z,5.73
2019-03-09T13:25:57.988Z,5.76
2019-03-09T13:28:28.191Z,5.78
2019-03-09T13:30:59.117Z,5.67
2019-03-09T13:33:29.636Z,5.67
2019-03-09T13:35:59.525Z,5.69
2019-03-09T13:38:29.382Z,5.73
2019-03-09T13:40:59.405Z,5.74
2019-03-09T13:43:29.413Z,5.70
2019-03-09T13:45:59.157Z,5.70
2019-03-09T13:48:29.544Z,5.81
2019-03-09T13:50:59.399Z,5.77
2019-03-09T13:53:29.460Z,5.72
2019-03-09T13:55:59.605Z,5.73
2019-03-09T13:58:29.655Z,5.70
2019-03-09T14:00:59.383Z,5.71
2019-03-09T14:03:30.514Z,5.71
2019-03-09T14:06:00.482Z,5.71
2019-03-09T14:08:33.373Z,5.71
2019-03-09T14:11:03.669Z,5.71
2019-03-09T14:13:33.638Z,5.69
2019-03-09T14:16:03.574Z,5.67
2019-03-09T14:18:33.261Z,5.63
2019-03-09T14:21:04.254Z,5.62
2019-03-09T14:23:35.753Z,5.67
2019-03-09T14:26:05.571Z,5.67
2019-03-09T14:28:35.438Z,5.61
2019-03-09T14:31:05.006Z,5.60
2019-03-09T14:33:38.031Z,5.61
2019-03-09T14:36:08.821Z,5.65
2019-03-09T14:38:38.840Z,5.62
2019-03-09T14:41:08.353Z,5.66
2019-03-09T14:43:38.007Z,5.66
2019-03-09T14:46:07.734Z,5.65
2019-03-09T14:48:37.700Z,5.67
2019-03-09T14:51:08.275Z,5.62
2019-03-09T14:53:38.422Z,5.68
2019-03-09T14:56:08.024Z,5.60
2019-03-09T14:58:39.017Z,5.65
2019-03-09T15:01:08.991Z,5.54
2019-03-09T15:03:38.967Z,5.54
2019-03-09T15:06:09.461Z,5.61
2019-03-09T15:08:39.250Z,5.54
2019-03-09T15:11:10.824Z,5.54
2019-03-09T15:13:40.706Z,5.58
2019-03-09T15:16:10.807Z,5.58
2019-03-09T15:18:41.390Z,5.65
2019-03-09T15:21:29.222Z,5.69
2019-03-09T15:23:59.172Z,5.67
2019-03-09T15:26:29.027Z,5.65
2019-03-09T15:28:58.963Z,5.68
2019-03-09T15:31:29.042Z,5.69
2019-03-09T15:33:59.349Z,5.69
2019-03-09T15:36:31.276Z,5.69
2019-03-09T15:39:01.537Z,5.64
2019-03-09T15:41:31.646Z,5.64
2019-03-09T15:44:01.385Z,5.64
2019-03-09T15:46:31.391Z,5.60
2019-03-09T15:49:01.571Z,5.65
2019-03-09T15:51:31.514Z,5.63
2019-03-09T15:54:01.267Z,5.57
2019-03-09T15:56:30.874Z,4.57
2019-03-09T15:59:00.722Z,5.38
2019-03-09T16:01:30.995Z,5.42
2019-03-09T16:04:01.289Z,5.39
2019-03-09T16:06:31.029Z,5.38
2019-03-09T16:09:00.965Z,5.35
2019-03-09T16:11:31.250Z,5.38
2019-03-09T16:17:14.105Z,5.32
2019-03-09T16:19:44.219Z,5.34
2019-03-09T16:22:14.632Z,5.31
2019-03-09T16:24:44.818Z,5.31
2019-03-09T16:27:14.608Z,5.21
2019-03-09T16:29:44.329Z,5.23
2019-03-09T16:32:14.441Z,5.23
2019-03-09T16:34:45.699Z,5.24
2019-03-09T16:37:15.687Z,5.26
2019-03-09T16:39:45.440Z,5.30
2019-03-09T16:42:15.104Z,5.35
2019-03-09T16:44:45.519Z,5.27
2019-03-09T16:47:15.112Z,5.20
2019-03-09T16:49:45.235Z,5.23
2019-03-09T16:52:15.345Z,5.15
2019-03-09T16:54:45.304Z,5.18
2019-03-09T16:57:15.156Z,5.19
2019-03-09T16:59:46.059Z,5.15
2019-03-09T17:02:16.354Z,5.14
2019-03-09T17:04:47.056Z,5.16
2019-03-09T17:07:16.869Z,5.17
2019-03-09T17:09:46.804Z,5.23
2019-03-09T17:12:17.438Z,5.13
2019-03-09T17:14:47.296Z,5.11
2019-03-09T17:17:17.221Z,5.15
2019-03-09T17:19:47.858Z,5.12
2019-03-09T17:22:18.940Z,5.10
2019-03-09T17:24:49.191Z,5.10
2019-03-09T17:27:19.352Z,5.13
2019-03-09T17:29:49.947Z,4.65
2019-03-09T17:32:25.791Z,5.31
2019-03-09T17:34:55.015Z,5.43
2019-03-09T17:37:25.085Z,5.31
2019-03-09T17:39:55.574Z,5.35
2019-03-09T17:42:26.341Z,5.31
2019-03-09T17:44:56.379Z,5.19
2019-03-09T17:47:27.066Z,5.10
2019-03-09T17:49:57.236Z,5.15
2019-03-09T17:52:28.376Z,5.35
2019-03-09T17:54:58.774Z,5.22
2019-03-09T17:57:28.907Z,5.12
2019-03-09T17:59:58.822Z,5.22
2019-03-09T18:02:28.634Z,5.13
2019-03-09T18:04:59.060Z,5.04
2019-03-09T18:07:28.890Z,5.22
2019-03-09T18:09:59.230Z,5.03
2019-03-09T18:12:32.423Z,5.03
2019-03-09T18:15:03.038Z,5.10
2019-03-09T18:17:33.016Z,5.03
2019-03-09T18:20:03.867Z,5.03
2019-03-09T18:22:34.443Z,4.94
2019-03-09T18:25:05.497Z,4.94
2019-03-09T18:27:39.588Z,4.96
2019-03-09T18:30:09.451Z,4.97
2019-03-09T18:32:39.258Z,4.97
2019-03-09T18:35:10.851Z,4.96
2019-03-09T18:37:40.872Z,4.91
2019-03-09T18:40:10.763Z,4.91
2019-03-09T18:42:41.136Z,4.98
2019-03-09T18:45:13.454Z,4.95
2019-03-09T18:47:43.301Z,4.94
2019-03-09T18:50:14.447Z,4.97
2019-03-09T18:52:44.263Z,4.98
2019-03-09T18:55:15.817Z,4.97
2019-03-09T18:57:47.219Z,4.96
2019-03-09T19:00:18.013Z,5.00
2019-03-09T19:02:48.121Z,5.01
2019-03-09T19:05:18.377Z,5.04
2019-03-09T19:07:48.298Z,5.03
2019-03-09T19:10:18.342Z,5.00
2019-03-09T19:12:49.315Z,5.06
2019-03-09T19:15:19.386Z,5.14
2019-03-09T19:17:49.279Z,5.15
2019-03-09T19:20:20.877Z,5.10
2019-03-09T19:22:51.554Z,5.17
2019-03-09T19:25:21.453Z,5.09
2019-03-09T19:27:51.377Z,5.16
2019-03-09T19:30:21.558Z,4.98
2019-03-09T19:32:59.801Z,4.79
2019-03-09T19:35:23.085Z,4.79
2019-03-09T19:37:53.078Z,4.88
2019-03-09T19:40:23.824Z,4.88
2019-03-09T19:42:53.847Z,4.92
2019-03-09T19:45:25.488Z,4.84
2019-03-09T19:47:55.620Z,4.68
2019-03-09T19:50:26.378Z,4.73
2019-03-09T19:52:56.125Z,4.85
2019-03-09T19:55:25.785Z,4.70
2019-03-09T19:57:55.509Z,4.73
2019-03-09T20:00:27.976Z,4.72
2019-03-09T20:02:57.487Z,4.70
2019-03-09T20:05:27.915Z,4.58
2019-03-09T20:07:57.834Z,3.66
2019-03-09T20:10:27.617Z,3.73
2019-03-09T20:12:58.670Z,4.57
2019-03-09T20:15:28.827Z,4.58
2019-03-09T20:17:59.048Z,4.62
2019-03-09T20:20:29.944Z,4.65
2019-03-09T20:23:00.092Z,4.63
2019-03-09T20:25:31.079Z,4.63
2019-03-09T20:28:01.259Z,4.66
2019-03-09T20:30:31.228Z,4.66
2019-03-09T20:33:01.428Z,4.58
2019-03-09T20:35:31.885Z,4.60
2019-03-09T20:38:01.609Z,4.62
2019-03-09T20:40:31.263Z,4.65
2019-03-09T20:43:01.168Z,4.62
2019-03-09T20:45:31.308Z,4.64
2019-03-09T20:48:01.146Z,4.66
2019-03-09T20:50:31.435Z,4.63
2019-03-09T20:53:01.132Z,4.63
2019-03-09T20:55:30.948Z,4.61
2019-03-09T20:58:00.908Z,4.67
2019-03-09T21:00:30.499Z,4.70
2019-03-09T21:03:00.999Z,4.67
2019-03-09T21:05:30.989Z,4.66
2019-03-09T21:08:01.183Z,4.61
2019-03-09T21:10:31.263Z,4.70
2019-03-09T21:13:03.368Z,4.63
2019-03-09T21:15:34.582Z,4.63
2019-03-09T21:18:05.006Z,4.59
2019-03-09T21:20:35.826Z,4.53
2019-03-09T21:23:05.798Z,4.57
2019-03-09T21:25:35.671Z,4.63
2019-03-09T21:28:05.833Z,4.54
2019-03-09T21:30:35.818Z,4.58
2019-03-09T21:33:07.372Z,4.58
2019-03-09T21:35:37.720Z,4.67
2019-03-09T21:38:07.497Z,4.70
2019-03-09T21:40:37.376Z,4.75
2019-03-09T21:43:08.776Z,4.77
2019-03-09T21:45:39.073Z,4.80
2019-03-09T21:48:08.846Z,4.80
2019-03-09T21:50:39.789Z,4.66
2019-03-09T21:53:09.571Z,4.77
2019-03-09T21:55:39.491Z,4.78
2019-03-09T21:58:09.629Z,4.78
2019-03-09T22:00:39.606Z,4.72
2019-03-09T22:03:10.092Z,4.72
2019-03-09T22:05:39.989Z,4.72
2019-03-09T22:08:09.910Z,3.90
2019-03-09T22:10:39.843Z,4.72
2019-03-09T22:13:09.922Z,4.73
2019-03-09T22:15:39.764Z,4.75
2019-03-09T22:18:09.727Z,4.83
2019-03-09T22:20:40.287Z,4.82
2019-03-09T22:23:10.327Z,4.75
2019-03-09T22:25:40.159Z,4.81
2019-03-09T22:28:10.181Z,4.81
2019-03-09T22:30:40.563Z,4.88
2019-03-09T22:33:10.407Z,4.87
2019-03-09T22:35:42.862Z,4.89
2019-03-09T22:38:14.972Z,4.91
2019-03-09T22:40:44.305Z,4.84
2019-03-09T22:43:13.933Z,4.83
2019-03-09T22:45:43.928Z,4.87
2019-03-09T22:48:13.968Z,4.91
2019-03-09T22:50:44.078Z,4.92
2019-03-09T22:53:13.703Z,4.85
2019-03-09T22:55:44.003Z,4.89
2019-03-09T22:58:13.757Z,4.97
2019-03-09T23:00:45.086Z,5.01
2019-03-09T23:03:15.096Z,4.94
2019-03-09T23:05:45.286Z,4.84
2019-03-09T23:08:15.233Z,4.75
2019-03-09T23:10:45.387Z,4.74
2019-03-09T23:13:15.313Z,4.75
2019-03-09T23:15:45.341Z,4.73
2019-03-09T23:18:15.182Z,4.75
2019-03-09T23:20:45.096Z,4.80
2019-03-09T23:23:14.956Z,4.80
2019-03-09T23:25:44.712Z,4.76
2019-03-09T23:28:14.534Z,4.79
2019-03-09T23:30:44.482Z,4.76
2019-03-09T23:33:14.461Z,4.72
2019-03-09T23:35:44.273Z,4.76
2019-03-09T23:38:14.603Z,4.69
2019-03-09T23:40:44.492Z,4.66
2019-03-09T23:43:14.447Z,4.61
2019-03-09T23:45:44.488Z,4.57
2019-03-09T23:48:14.454Z,4.51
2019-03-09T23:50:44.122Z,4.53
2019-03-09T23:53:14.062Z,4.50
2019-03-09T23:55:43.632Z,4.46
2019-03-09T23:58:13.540Z,4.39
